Wyalusing, Pennsylvania
Current Conditions -  °F | °C
As of 12:54 AM on Sunday 23 Nov 2014 (Local Time) from KAVP Reporting Station
Overcast Overcast  
Wind Chill: 35°   Ceiling: 9000
Heat Index: 39°   Visibility: 10mi
Dew Point: 17°   Wind: 6mph
Humidity: 41%   Direction: 230°SW
Pressure: 30.14"   Gusts: NA
Location:  41.67°N, 76.26°W
Report Text: KAVP 230554Z AUTO 23005KT 10SM OVC090 04/M08 A3014 RMK AO2 SLP210 60000 T00391083 10039 20028 58005
Loading
Personal Weather Stations






























Interactive Weather Map New forecast layout! Learn more

10-Day Weather Forecast

Advertisements
Track Severe Weather on mobile